Time;durP1;ratioP1;P1;durP2;ratioP2;P2;SDS_P1;SDS_P2;PMS_P1;PMS_P2;Temp;Humidity;BMP_temperature;BMP_pressure;BME280_temperature;BME280_humidity;BME280_pressure;Samples;Min_cycle;Max_cycle;Signal;HPM_P1;HPM_P2
2020/12/30 00:00:57;;;;;;;15.77;9.35;;;;;;;7.37;91.00;99235.56;5071909;28;20029;-67
2020/12/30 00:03:22;;;;;;;16.35;9.02;;;;;;;7.37;90.31;99235.56;5071922;28;20027;-67
2020/12/30 00:05:48;;;;;;;15.82;8.95;;;;;;;7.32;90.16;99229.84;5071803;28;20047;-67
2020/12/30 00:08:13;;;;;;;14.90;8.90;;;;;;;7.40;90.34;99238.81;5071621;28;20048;-67
2020/12/30 00:10:39;;;;;;;16.48;9.45;;;;;;;7.37;90.11;99243.56;5071273;28;20101;-68
2020/12/30 00:13:05;;;;;;;15.02;8.70;;;;;;;7.37;90.26;99251.56;5071309;28;20043;-67
2020/12/30 00:15:30;;;;;;;15.45;9.57;;;;;;;7.45;89.90;99265.06;5071488;28;20063;-67
2020/12/30 00:17:56;;;;;;;15.90;9.27;;;;;;;7.33;89.87;99236.84;5071027;28;20039;-67
2020/12/30 00:20:21;;;;;;;22.23;9.98;;;;;;;7.47;89.80;99265.75;5071130;28;20035;-68
2020/12/30 00:22:47;;;;;;;15.32;9.05;;;;;;;7.48;90.04;99270.94;5071420;28;20062;-68
2020/12/30 00:25:14;;;;;;;16.33;9.65;;;;;;;7.45;89.81;99263.22;5074006;28;20387;-67
2020/12/30 00:27:41;;;;;;;17.02;9.75;;;;;;;7.53;89.85;99270.53;5090646;28;20482;-67
2020/12/30 00:30:12;;;;;;;15.65;8.80;;;;;;;7.52;89.65;99274.19;5090582;28;20514;-67
2020/12/30 00:32:39;;;;;;;14.18;8.85;;;;;;;7.52;89.93;99276.84;5091588;28;20035;-68
2020/12/30 00:35:05;;;;;;;16.52;8.70;;;;;;;7.46;90.08;99269.41;5091401;28;20028;-67
2020/12/30 00:37:31;;;;;;;17.42;9.13;;;;;;;7.38;90.12;99253.28;5091254;28;20103;-67
2020/12/30 00:39:56;;;;;;;15.23;8.60;;;;;;;7.37;90.17;99271.09;5091427;28;20106;-68
2020/12/30 00:42:22;;;;;;;15.02;8.52;;;;;;;7.46;89.83;99290.75;5082981;28;20028;-68
2020/12/30 00:44:47;;;;;;;19.30;9.57;;;;;;;7.46;90.52;99290.75;5070823;28;20038;-67
2020/12/30 00:47:14;;;;;;;17.15;8.55;;;;;;;7.22;90.58;99248.47;5070602;28;20030;-67
2020/12/30 00:49:40;;;;;;;13.52;8.68;;;;;;;7.43;90.65;99293.69;5070918;28;20025;-68
2020/12/30 00:52:08;;;;;;;15.20;8.52;;;;;;;7.45;90.54;99283.72;5070992;28;20031;-68
2020/12/30 00:54:33;;;;;;;11.95;7.15;;;;;;;7.53;89.80;99302.53;5069670;28;20115;-67
2020/12/30 00:56:59;;;;;;;10.98;6.65;;;;;;;7.50;90.23;99293.00;5070833;28;20476;-67
2020/12/30 00:59:24;;;;;;;17.45;6.63;;;;;;;7.54;89.49;99302.41;5066904;28;20111;-67
2020/12/30 01:01:51;;;;;;;8.57;5.25;;;;;;;7.48;89.34;99288.78;5070894;28;20017;-67
2020/12/30 01:04:19;;;;;;;8.57;4.45;;;;;;;7.65;88.99;99302.28;5070517;28;20039;-67
2020/12/30 01:06:49;;;;;;;9.38;4.22;;;;;;;7.75;89.09;99304.91;5069316;28;20028;-68
2020/12/30 01:09:14;;;;;;;9.85;3.75;;;;;;;7.74;88.76;99295.25;5070682;28;20099;-68
2020/12/30 01:11:39;;;;;;;11.77;3.95;;;;;;;7.75;87.72;99281.75;5070071;28;20045;-67
2020/12/30 01:14:05;;;;;;;7.30;3.47;;;;;;;7.95;87.74;99299.44;5070470;28;20025;-67
2020/12/30 01:16:30;;;;;;;11.13;3.97;;;;;;;7.94;87.11;99288.88;5070139;28;20037;-68
2020/12/30 01:18:56;;;;;;;10.48;3.83;;;;;;;7.99;86.60;99287.47;5068984;28;20379;-67
2020/12/30 01:21:21;;;;;;;7.82;3.50;;;;;;;8.17;86.61;99308.94;5070104;28;20089;-68
2020/12/30 01:23:47;;;;;;;5.75;3.03;;;;;;;8.11;87.04;99290.81;5070121;28;20032;-67
2020/12/30 01:26:12;;;;;;;7.65;3.38;;;;;;;8.29;86.73;99295.28;5070154;28;20036;-68
2020/12/30 01:28:38;;;;;;;6.78;3.42;;;;;;;8.36;87.35;99311.59;5070278;28;20130;-68
2020/12/30 01:31:04;;;;;;;7.35;3.17;;;;;;;8.29;87.72;99295.28;5069373;28;20028;-67
2020/12/30 01:33:29;;;;;;;7.57;3.00;;;;;;;8.45;88.06;99313.41;5068589;28;20170;-67
2020/12/30 01:35:55;;;;;;;8.85;3.20;;;;;;;8.49;88.70;99312.97;5070294;28;20024;-68
2020/12/30 01:38:20;;;;;;;5.32;2.95;;;;;;;8.55;89.53;99323.03;5070183;28;20549;-68
2020/12/30 01:40:46;;;;;;;5.10;2.65;;;;;;;8.61;90.08;99319.78;5070377;28;20123;-68
2020/12/30 01:43:13;;;;;;;7.63;2.67;;;;;;;8.50;91.39;99301.28;5070289;28;20372;-68
2020/12/30 01:45:39;;;;;;;7.45;2.53;;;;;;;8.55;91.97;99295.50;5070621;28;20029;-68
2020/12/30 01:48:13;;;;;;;6.13;1.90;;;;;;;8.72;92.77;99314.28;5067926;28;20364;-68
2020/12/30 01:50:39;;;;;;;5.25;1.77;;;;;;;8.71;93.60;99309.91;5070429;28;20036;-68
2020/12/30 01:53:05;;;;;;;5.53;1.52;;;;;;;8.75;94.59;99308.63;5070340;28;20123;-68
2020/12/30 01:55:32;;;;;;;7.35;2.63;;;;;;;8.70;94.53;99288.66;5068585;28;20029;-68
2020/12/30 01:57:58;;;;;;;5.07;1.83;;;;;;;8.76;94.97;99304.97;5069799;28;20028;-68
2020/12/30 02:00:23;;;;;;;4.85;1.95;;;;;;;8.77;95.55;99303.97;5069616;28;20028;-68
2020/12/30 02:02:58;;;;;;;4.05;1.75;;;;;;;8.78;95.64;99310.16;5069909;28;20024;-69
2020/12/30 02:05:24;;;;;;;3.78;1.20;;;;;;;8.77;96.22;99298.63;5069743;28;20028;-69
2020/12/30 02:07:50;;;;;;;5.63;1.23;;;;;;;8.80;96.22;99313.50;5070014;28;20035;-69
2020/12/30 02:10:16;;;;;;;4.53;1.50;;;;;;;8.80;96.92;99310.84;5069954;28;20043;-68
2020/12/30 02:12:44;;;;;;;6.85;1.45;;;;;;;8.80;97.24;99313.50;5069825;28;20029;-68
2020/12/30 02:15:28;;;;;;;2.63;1.63;;;;;;;8.78;97.88;99318.19;5069638;28;20121;-69
2020/12/30 02:17:54;;;;;;;5.35;1.70;;;;;;;8.68;98.41;99291.47;5069682;28;20115;-69
2020/12/30 02:20:21;;;;;;;6.30;1.50;;;;;;;8.79;98.78;99306.50;5069829;28;20117;-68
2020/12/30 02:22:55;;;;;;;3.83;1.30;;;;;;;8.79;100.00;99307.34;5085109;28;20028;-68
2020/12/30 02:25:21;;;;;;;2.78;1.60;;;;;;;8.70;99.81;99299.34;5088492;28;20127;-68
2020/12/30 02:27:46;;;;;;;4.28;1.60;;;;;;;8.76;100.00;99301.44;5089914;28;20547;-68
2020/12/30 02:30:13;;;;;;;4.57;1.42;;;;;;;8.67;100.00;99276.44;5089726;28;20141;-68
2020/12/30 02:32:38;;;;;;;10.20;2.05;;;;;;;8.64;100.00;99267.91;5089801;28;20335;-68
2020/12/30 02:35:03;;;;;;;4.47;1.92;;;;;;;8.69;100.00;99276.28;5089805;28;20035;-69
2020/12/30 02:37:29;;;;;;;3.53;1.23;;;;;;;8.75;100.00;99281.91;5089953;28;20039;-69
2020/12/30 02:39:54;;;;;;;7.53;1.75;;;;;;;8.76;100.00;99286.25;5089956;28;20047;-69
2020/12/30 02:42:20;;;;;;;3.40;1.80;;;;;;;8.69;100.00;99262.94;5091396;28;20044;-69
2020/12/30 02:44:45;;;;;;;7.13;2.05;;;;;;;8.72;100.00;99260.81;5093174;28;20043;-68
2020/12/30 02:47:11;;;;;;;3.53;2.10;;;;;;;8.72;100.00;99251.94;5093225;28;20035;-69
2020/12/30 02:49:36;;;;;;;4.93;1.77;;;;;;;8.70;100.00;99249.41;5093330;28;20040;-69
2020/12/30 02:52:02;;;;;;;5.97;1.95;;;;;;;8.52;100.00;99218.28;5093648;28;20012;-68
2020/12/30 02:54:27;;;;;;;8.60;2.42;;;;;;;8.69;100.00;99244.22;5091970;28;20024;-68
2020/12/30 02:56:52;;;;;;;3.38;1.60;;;;;;;8.50;100.00;99212.25;5093597;28;20032;-68
2020/12/30 02:59:18;;;;;;;5.75;1.50;;;;;;;8.66;100.00;99232.00;5093488;28;20106;-69
2020/12/30 03:01:43;;;;;;;6.53;2.15;;;;;;;8.66;100.00;99236.50;5093320;28;20035;-68
2020/12/30 03:04:09;;;;;;;6.75;1.88;;;;;;;8.66;100.00;99231.16;5091813;28;20039;-68
2020/12/30 03:06:34;;;;;;;4.68;2.03;;;;;;;8.65;100.00;99232.16;5092989;28;20031;-68
2020/12/30 03:09:00;;;;;;;5.47;1.95;;;;;;;8.55;100.00;99208.13;5092881;28;20105;-68
2020/12/30 03:11:26;;;;;;;7.85;1.75;;;;;;;8.65;100.00;99222.28;5092536;28;20048;-68
2020/12/30 03:13:52;;;;;;;6.75;1.88;;;;;;;8.67;100.00;99214.97;5092851;28;20659;-68
2020/12/30 03:16:18;;;;;;;3.42;1.77;;;;;;;8.65;100.00;99214.25;5092912;28;20119;-68
2020/12/30 03:18:44;;;;;;;4.55;2.10;;;;;;;8.63;100.00;99213.59;5092859;28;20070;-68
2020/12/30 03:21:09;;;;;;;6.13;2.45;;;;;;;8.57;100.00;99197.28;5092885;28;20110;-68
2020/12/30 03:23:35;;;;;;;8.00;2.45;;;;;;;8.57;100.00;99187.47;5093096;28;20054;-68
2020/12/30 03:26:00;;;;;;;5.55;2.20;;;;;;;8.53;100.00;99179.88;5092737;28;20449;-69
2020/12/30 03:28:26;;;;;;;4.55;2.03;;;;;;;8.57;100.00;99192.81;5091340;28;20034;-69
2020/12/30 03:30:51;;;;;;;5.47;2.30;;;;;;;8.56;100.00;99192.94;5092763;28;20024;-69
2020/12/30 03:33:17;;;;;;;8.35;2.28;;;;;;;8.53;100.00;99193.25;5091031;28;20032;-69
2020/12/30 03:35:42;;;;;;;4.72;2.00;;;;;;;8.52;100.00;99194.25;5090568;28;20048;-69
2020/12/30 03:38:08;;;;;;;7.82;2.60;;;;;;;8.53;100.00;99187.91;5072072;28;20028;-69
2020/12/30 03:40:33;;;;;;;4.80;2.15;;;;;;;8.51;100.00;99185.38;5072684;28;20028;-68
2020/12/30 03:42:58;;;;;;;6.25;2.20;;;;;;;8.41;100.00;99162.38;5092476;28;20046;-68
2020/12/30 03:45:24;;;;;;;6.07;2.08;;;;;;;8.49;100.00;99181.19;5092485;28;20050;-68
2020/12/30 03:47:49;;;;;;;8.77;2.95;;;;;;;8.50;100.00;99181.03;5092230;28;20107;-68
2020/12/30 03:50:15;;;;;;;7.78;2.83;;;;;;;8.44;100.00;99164.75;5092019;28;20043;-68
2020/12/30 03:52:40;;;;;;;11.02;3.40;;;;;;;8.36;100.00;99148.63;5079041;28;20021;-68
2020/12/30 03:55:05;;;;;;;6.03;3.25;;;;;;;8.48;100.00;99176.84;5071089;28;20029;-68
2020/12/30 03:57:31;;;;;;;9.70;4.32;;;;;;;8.52;100.00;99180.88;5072242;28;20113;-68
2020/12/30 03:59:56;;;;;;;9.48;3.95;;;;;;;8.50;100.00;99172.16;5071199;28;20044;-68
2020/12/30 04:02:22;;;;;;;8.85;3.42;;;;;;;8.49;100.00;99171.34;5072810;28;20028;-68
2020/12/30 04:04:47;;;;;;;6.82;4.10;;;;;;;8.47;100.00;99164.44;5071138;28;20024;-68
2020/12/30 04:07:13;;;;;;;7.72;3.97;;;;;;;8.35;100.00;99163.00;5071032;28;20031;-68
2020/12/30 04:09:38;;;;;;;9.98;4.45;;;;;;;8.39;100.00;99180.41;5070962;28;20025;-68
2020/12/30 04:12:04;;;;;;;9.30;5.45;;;;;;;8.37;100.00;99182.38;5070739;28;20052;-68
2020/12/30 04:14:29;;;;;;;9.82;4.90;;;;;;;8.36;100.00;99175.34;5070838;28;20040;-68
2020/12/30 04:16:55;;;;;;;9.55;5.05;;;;;;;8.31;100.00;99167.78;5070926;28;20041;-69
2020/12/30 04:19:21;;;;;;;10.88;4.40;;;;;;;8.34;100.00;99167.50;5070402;28;20032;-68
2020/12/30 04:21:46;;;;;;;11.27;5.20;;;;;;;8.34;100.00;99166.63;5070743;28;20486;-68
2020/12/30 04:24:12;;;;;;;10.50;5.38;;;;;;;8.34;100.00;99170.16;5070737;28;20055;-68
2020/12/30 04:26:37;;;;;;;8.50;4.97;;;;;;;8.32;100.00;99164.09;5070496;28;20498;-68
2020/12/30 04:29:02;;;;;;;6.32;4.20;;;;;;;8.19;100.00;99136.88;5070584;28;20059;-68
2020/12/30 04:31:28;;;;;;;8.57;4.40;;;;;;;8.23;100.00;99151.66;5070093;28;20035;-68
2020/12/30 04:33:53;;;;;;;11.35;4.50;;;;;;;8.23;100.00;99149.00;5070669;28;20102;-68
2020/12/30 04:36:19;;;;;;;7.57;4.22;;;;;;;8.26;100.00;99158.53;5070554;28;20025;-68
2020/12/30 04:38:44;;;;;;;13.85;4.85;;;;;;;8.22;100.00;99159.84;5070545;28;20498;-68
2020/12/30 04:41:11;;;;;;;11.13;4.70;;;;;;;8.18;100.00;99155.72;5069986;28;20031;-68
2020/12/30 04:43:40;;;;;;;10.07;5.65;;;;;;;8.17;100.00;99149.56;5069643;28;20116;-68
2020/12/30 04:46:06;;;;;;;12.15;5.20;;;;;;;7.79;100.00;99079.47;5069421;28;20024;-68
2020/12/30 04:48:34;;;;;;;12.00;6.20;;;;;;;8.12;100.00;99135.78;5069651;28;20036;-68
2020/12/30 04:51:00;;;;;;;15.30;7.25;;;;;;;8.02;100.00;99123.47;5069459;28;20020;-68
2020/12/30 04:53:27;;;;;;;11.00;6.00;;;;;;;8.11;100.00;99143.94;5069599;28;20025;-68
2020/12/30 04:55:58;;;;;;;11.68;6.00;;;;;;;8.12;100.00;99145.63;5069932;28;20023;-68
2020/12/30 04:58:27;;;;;;;11.95;6.07;;;;;;;8.11;100.00;99141.28;5069972;28;20021;-68
2020/12/30 05:00:53;;;;;;;8.70;5.30;;;;;;;8.10;100.00;99137.75;5070081;28;20646;-68
2020/12/30 05:03:28;;;;;;;8.25;5.63;;;;;;;8.10;100.00;99136.94;5070381;28;20024;-71
2020/12/30 05:05:55;;;;;;;9.00;5.70;;;;;;;8.05;100.00;99131.19;5078587;28;20463;-71
2020/12/30 05:08:20;;;;;;;6.40;5.10;;;;;;;8.11;100.00;99143.94;5089901;28;20024;-71
2020/12/30 05:10:46;;;;;;;7.90;5.20;;;;;;;8.10;100.00;99139.59;5089782;28;20062;-71
2020/12/30 05:13:12;;;;;;;7.60;4.65;;;;;;;8.10;100.00;99140.44;5090071;28;20462;-71
2020/12/30 05:15:38;;;;;;;10.25;4.20;;;;;;;8.15;100.00;99143.50;5090071;28;20036;-70
2020/12/30 05:18:08;;;;;;;7.63;4.70;;;;;;;8.09;100.00;99140.59;5070131;28;20391;-71
2020/12/30 05:20:37;;;;;;;9.52;4.93;;;;;;;8.07;100.00;99126.56;5069784;28;20043;-68
2020/12/30 05:23:06;;;;;;;8.93;5.00;;;;;;;8.16;100.00;99144.38;5069784;28;20055;-68
2020/12/30 05:25:42;;;;;;;11.38;5.97;;;;;;;8.08;100.00;99134.41;5069548;28;20379;-68
2020/12/30 05:28:09;;;;;;;7.75;4.80;;;;;;;8.03;100.00;99122.50;5069849;28;20031;-68
2020/12/30 05:30:38;;;;;;;9.80;5.10;;;;;;;8.19;100.00;99157.41;5069773;28;20052;-68
2020/12/30 05:33:05;;;;;;;8.68;4.60;;;;;;;8.20;100.00;99159.09;5069491;28;20032;-68
2020/12/30 05:35:32;;;;;;;7.88;4.57;;;;;;;8.21;100.00;99163.44;5069462;28;20683;-68
2020/12/30 05:37:58;;;;;;;7.45;4.28;;;;;;;8.20;100.00;99159.09;5069586;28;20089;-68
2020/12/30 05:40:33;;;;;;;9.00;5.35;;;;;;;8.19;100.00;99152.06;5069432;28;20430;-68
2020/12/30 05:43:18;;;;;;;8.65;5.65;;;;;;;8.18;100.00;99161.06;5068247;28;20029;-68
2020/12/30 05:45:47;;;;;;;9.65;4.80;;;;;;;8.19;100.00;99155.56;5069202;28;20480;-71
2020/12/30 05:48:14;;;;;;;7.78;4.85;;;;;;;8.08;100.00;99130.91;5069354;28;20021;-71
2020/12/30 05:50:56;;;;;;;7.97;4.93;;;;;;;8.14;100.00;99143.66;5069539;28;20021;-71
2020/12/30 05:53:24;;;;;;;7.13;4.90;;;;;;;8.22;100.00;99157.16;5072842;28;20020;-71
2020/12/30 05:55:51;;;;;;;9.07;5.13;;;;;;;8.15;100.00;99150.66;5074491;28;20107;-71
2020/12/30 05:58:17;;;;;;;9.25;4.85;;;;;;;8.26;100.00;99172.72;5069642;28;20388;-71
2020/12/30 06:00:44;;;;;;;11.38;6.18;;;;;;;8.27;100.00;99162.88;5083998;28;20528;-72
2020/12/30 06:03:14;;;;;;;10.30;5.30;;;;;;;8.27;100.00;99173.56;5082070;28;20016;-71
2020/12/30 06:05:40;;;;;;;8.98;5.03;;;;;;;8.08;100.00;99139.75;5078342;28;20036;-68
2020/12/30 06:08:06;;;;;;;11.60;5.97;;;;;;;8.27;100.00;99193.13;5083760;28;20035;-68
2020/12/30 06:10:32;;;;;;;11.40;6.53;;;;;;;8.28;100.00;99177.91;5067610;28;20040;-68
2020/12/30 06:13:02;;;;;;;14.63;7.13;;;;;;;8.28;100.00;99173.41;5068468;28;20506;-68
2020/12/30 06:15:30;;;;;;;11.57;7.00;;;;;;;8.21;100.00;99164.28;5068497;28;20125;-68
2020/12/30 06:18:04;;;;;;;10.77;7.70;;;;;;;8.21;100.00;99160.75;5071453;28;20394;-68
2020/12/30 06:20:36;;;;;;;10.80;7.43;;;;;;;8.33;100.00;99181.84;5072341;28;20024;-68
2020/12/30 06:23:04;;;;;;;13.13;7.43;;;;;;;8.36;100.00;99189.56;5069201;28;20024;-68
2020/12/30 06:25:43;;;;;;;15.52;7.53;;;;;;;8.23;100.00;99175.72;5072162;28;20036;-68
2020/12/30 06:28:20;;;;;;;11.98;7.38;;;;;;;8.36;100.00;99199.41;5071340;28;20033;-67
2020/12/30 06:30:47;;;;;;;14.35;7.95;;;;;;;8.36;100.00;99186.88;5071711;28;20038;-68
2020/12/30 06:33:13;;;;;;;14.13;9.02;;;;;;;8.33;100.00;99189.84;5072948;28;20077;-68
2020/12/30 06:35:41;;;;;;;13.90;8.77;;;;;;;8.25;100.00;99178.19;5072735;28;20024;-69
2020/12/30 06:38:28;;;;;;;13.52;8.13;;;;;;;8.29;100.00;99179.59;5071540;28;20092;-69
2020/12/30 06:40:54;;;;;;;12.63;7.95;;;;;;;8.36;100.00;99186.88;5072748;28;20025;-68
2020/12/30 06:43:42;;;;;;;12.60;8.02;;;;;;;8.36;100.00;99191.38;5072669;28;20035;-68
2020/12/30 06:46:09;;;;;;;11.15;7.97;;;;;;;8.28;100.00;99180.56;5065445;28;20048;-68
2020/12/30 06:49:06;;;;;;;11.82;7.75;;;;;;;8.37;100.00;99195.72;5072599;28;20032;-68
2020/12/30 06:51:40;;;;;;;11.85;7.75;;;;;;;8.37;100.00;99187.72;5063265;28;20341;-68
2020/12/30 06:54:06;;;;;;;17.15;9.43;;;;;;;8.38;100.00;99190.22;5070818;28;20467;-68
2020/12/30 06:56:44;;;;;;;14.48;9.35;;;;;;;8.40;100.00;99179.41;5073125;28;20040;-69
2020/12/30 06:59:26;;;;;;;15.18;9.02;;;;;;;8.41;100.00;99181.06;5073621;28;20043;-68
2020/12/30 07:02:01;;;;;;;16.15;10.38;;;;;;;8.38;100.00;99176.88;5073202;28;20012;-68
2020/12/30 07:04:29;;;;;;;15.35;9.52;;;;;;;8.40;100.00;99176.72;5072675;28;20107;-68
2020/12/30 07:06:55;;;;;;;14.60;9.80;;;;;;;8.31;100.00;99161.59;5073174;28;20016;-67
2020/12/30 07:09:32;;;;;;;14.52;9.85;;;;;;;8.41;100.00;99178.41;5072909;28;20627;-67
2020/12/30 07:12:02;;;;;;;19.30;10.50;;;;;;;8.34;100.00;99177.31;5070836;28;20041;-68
2020/12/30 07:14:30;;;;;;;15.23;9.98;;;;;;;8.38;100.00;99186.72;5070079;28;20402;-67
2020/12/30 07:17:04;;;;;;;16.15;10.25;;;;;;;8.38;100.00;99192.91;5072100;28;20395;-67
2020/12/30 07:19:36;;;;;;;16.50;9.85;;;;;;;8.41;100.00;99205.97;5070172;28;20032;-68
2020/12/30 07:22:04;;;;;;;13.35;9.38;;;;;;;8.42;100.00;99217.50;5072744;28;20024;-67
2020/12/30 07:24:53;;;;;;;15.15;9.18;;;;;;;8.41;100.00;99226.50;5071616;28;20059;-67
2020/12/30 07:27:21;;;;;;;13.10;9.02;;;;;;;8.32;100.00;99206.03;5072661;28;20032;-67
2020/12/30 07:29:47;;;;;;;14.20;9.55;;;;;;;8.41;100.00;99211.31;5071859;28;20020;-67
2020/12/30 07:32:14;;;;;;;11.57;8.80;;;;;;;8.43;100.00;99217.34;5071993;28;20029;-67
2020/12/30 07:34:44;;;;;;;16.88;9.68;;;;;;;8.44;100.00;99220.84;5070186;28;20024;-68
2020/12/30 07:37:10;;;;;;;15.55;10.48;;;;;;;8.46;100.00;99229.56;5070678;28;20119;-68
2020/12/30 07:39:41;;;;;;;16.40;11.45;;;;;;;8.48;100.00;99231.09;5067474;28;20090;-68
2020/12/30 07:42:18;;;;;;;16.77;10.25;;;;;;;8.48;100.00;99224.94;5070541;28;20038;-68
2020/12/30 07:44:45;;;;;;;16.08;10.02;;;;;;;8.49;100.00;99240.81;5071267;28;20028;-68
2020/12/30 07:47:11;;;;;;;16.08;11.50;;;;;;;8.41;100.00;99226.50;5073566;28;20586;-68
2020/12/30 07:49:37;;;;;;;17.15;11.40;;;;;;;8.47;100.00;99233.91;5092158;28;20117;-68
2020/12/30 07:52:04;;;;;;;20.27;10.95;;;;;;;8.49;100.00;99239.97;5091656;28;20056;-68
2020/12/30 07:54:30;;;;;;;15.55;10.98;;;;;;;8.52;100.00;99242.34;5091484;28;20043;-68
2020/12/30 07:57:06;;;;;;;18.00;10.82;;;;;;;8.52;100.00;99247.69;5091752;28;20077;-68
2020/12/30 07:59:33;;;;;;;14.32;10.57;;;;;;;8.40;100.00;99214.13;5089807;28;20810;-68
2020/12/30 08:01:58;;;;;;;14.77;9.55;;;;;;;8.53;100.00;99236.00;5090178;28;20024;-68
2020/12/30 08:04:25;;;;;;;15.25;10.25;;;;;;;8.40;100.00;99214.97;5090039;28;20035;-67
2020/12/30 08:06:50;;;;;;;15.35;9.43;;;;;;;8.44;100.00;99223.53;5091833;28;20368;-68
2020/12/30 08:09:16;;;;;;;16.17;8.98;;;;;;;8.50;100.00;99228.28;5074601;28;20043;-68
2020/12/30 08:12:00;;;;;;;16.02;10.80;;;;;;;8.52;100.00;99231.66;5070113;28;20048;-68
2020/12/30 08:14:28;;;;;;;12.40;9.50;;;;;;;8.57;100.00;99237.38;5071556;28;20036;-68
2020/12/30 08:16:59;;;;;;;16.48;10.30;;;;;;;8.53;100.00;99233.31;5078212;28;20028;-68
2020/12/30 08:19:34;;;;;;;16.83;10.77;;;;;;;8.60;100.00;99253.13;5092111;28;20160;-69
2020/12/30 08:22:09;;;;;;;12.88;9.20;;;;;;;8.48;100.00;99233.78;5090710;28;20024;-69
2020/12/30 08:24:38;;;;;;;16.52;11.30;;;;;;;8.62;100.00;99260.03;5091729;28;20035;-69
2020/12/30 08:27:05;;;;;;;15.73;10.75;;;;;;;8.38;100.00;99229.44;5090616;28;20027;-68
2020/12/30 08:29:34;;;;;;;15.43;10.65;;;;;;;8.67;100.00;99275.59;5091773;28;20685;-68
2020/12/30 08:32:32;;;;;;;17.25;12.15;;;;;;;8.69;100.00;99279.81;5090369;28;20012;-68
2020/12/30 08:35:22;;;;;;;19.85;12.77;;;;;;;8.71;100.00;99277.00;5091775;28;20032;-68
2020/12/30 08:38:02;;;;;;;19.95;13.00;;;;;;;8.65;100.00;99266.91;5091737;28;20478;-68
2020/12/30 08:40:32;;;;;;;18.55;12.90;;;;;;;8.69;100.00;99270.94;5075198;28;20028;-71
2020/12/30 08:43:16;;;;;;;18.75;12.48;;;;;;;8.80;100.00;99284.94;5082632;28;20032;-71
2020/12/30 08:46:00;;;;;;;18.63;13.60;;;;;;;8.75;100.00;99257.84;5084008;28;20040;-71
2020/12/30 08:48:29;;;;;;;24.55;13.10;;;;;;;8.89;100.00;99264.50;5084301;28;20062;-72
2020/12/30 08:50:55;;;;;;;17.77;13.50;;;;;;;8.89;100.00;99259.16;5079107;28;20378;-71
2020/12/30 08:53:39;;;;;;;20.40;14.63;;;;;;;8.91;100.00;99255.31;5089539;28;20024;-71
2020/12/30 08:56:06;;;;;;;21.75;13.82;;;;;;;8.87;100.00;99239.78;5073208;28;20336;-68
2020/12/30 08:58:33;;;;;;;23.88;15.07;;;;;;;9.04;100.00;99268.34;5076171;28;20029;-68
2020/12/30 09:00:58;;;;;;;23.40;15.00;;;;;;;9.07;100.00;99268.88;5070937;28;20040;-68
2020/12/30 09:03:26;;;;;;;25.25;15.60;;;;;;;9.09;100.00;99276.75;5070766;28;20055;-68
2020/12/30 09:05:53;;;;;;;20.10;15.00;;;;;;;9.11;100.00;99286.34;5069574;28;20036;-68
2020/12/30 09:08:22;;;;;;;23.85;15.55;;;;;;;9.11;100.00;99283.66;5082284;28;20031;-68
2020/12/30 09:10:49;;;;;;;20.80;14.57;;;;;;;9.02;100.00;99267.66;5091096;28;20036;-68
2020/12/30 09:13:19;;;;;;;19.08;14.30;;;;;;;9.13;100.00;99283.50;5089495;28;20069;-67
2020/12/30 09:15:46;;;;;;;17.92;13.38;;;;;;;9.14;100.00;99275.34;5090970;28;20028;-68
2020/12/30 09:18:13;;;;;;;21.65;14.02;;;;;;;9.16;100.00;99267.16;5074946;28;20031;-68
2020/12/30 09:20:39;;;;;;;21.55;14.45;;;;;;;9.19;100.00;99270.34;5070676;28;20037;-68
2020/12/30 09:23:05;;;;;;;19.33;14.30;;;;;;;9.12;100.00;99249.72;5070802;28;20032;-68
2020/12/30 09:25:33;;;;;;;20.52;14.20;;;;;;;9.23;100.00;99263.69;5070744;28;20033;-68
2020/12/30 09:27:59;;;;;;;17.95;12.85;;;;;;;9.27;100.00;99253.56;5070825;28;20016;-68
2020/12/30 09:30:26;;;;;;;26.42;14.40;;;;;;;9.26;100.00;99250.03;5070592;28;20036;-68
2020/12/30 09:32:54;;;;;;;18.00;12.90;;;;;;;9.32;100.00;99268.16;5070616;28;20032;-68
2020/12/30 09:35:28;;;;;;;22.98;13.85;;;;;;;9.29;100.00;99246.22;5070665;28;20446;-67
2020/12/30 09:37:56;;;;;;;21.35;14.57;;;;;;;9.41;100.00;99250.34;5070469;28;20031;-68
2020/12/30 09:40:22;;;;;;;19.80;12.93;;;;;;;9.47;100.00;99260.44;5070202;28;20040;-67
2020/12/30 09:42:48;;;;;;;22.08;13.77;;;;;;;9.43;100.00;99229.63;5070054;28;20032;-68
2020/12/30 09:45:15;;;;;;;17.65;12.52;;;;;;;9.56;100.00;99239.94;5069571;28;20476;-67
2020/12/30 09:47:42;;;;;;;20.80;13.93;;;;;;;9.63;100.00;99235.63;5069069;28;20028;-68
2020/12/30 09:50:10;;;;;;;20.27;12.15;;;;;;;9.69;100.00;99243.91;5069342;28;20478;-67
2020/12/30 09:52:42;;;;;;;17.73;12.18;;;;;;;9.76;100.00;99238.75;5071641;28;20025;-67
2020/12/30 09:55:09;;;;;;;19.65;12.35;;;;;;;9.82;100.00;99240.81;5073607;28;20252;-67
2020/12/30 09:57:36;;;;;;;17.38;11.55;;;;;;;9.84;100.00;99228.09;5073355;28;20020;-67
2020/12/30 10:00:04;;;;;;;17.35;12.07;;;;;;;9.94;100.00;99242.25;5072184;28;21471;-67
2020/12/30 10:02:29;;;;;;;17.50;11.63;;;;;;;9.96;100.00;99238.41;5073633;28;20081;-67
2020/12/30 10:04:55;;;;;;;15.18;11.18;;;;;;;9.92;100.00;99220.13;5073815;28;20103;-67
2020/12/30 10:07:21;;;;;;;15.45;11.00;;;;;;;10.06;100.00;99249.03;5073736;28;20024;-67
2020/12/30 10:09:46;;;;;;;15.77;10.98;;;;;;;10.07;100.00;99248.91;5074056;28;20520;-67
2020/12/30 10:12:12;;;;;;;15.50;10.48;;;;;;;10.09;100.00;99240.72;5073932;28;20049;-67
2020/12/30 10:14:37;;;;;;;15.45;10.30;;;;;;;10.09;100.00;99238.03;5074075;28;20375;-68
2020/12/30 10:17:03;;;;;;;16.42;10.18;;;;;;;10.05;100.00;99218.72;5074074;28;20826;-67
2020/12/30 10:19:28;;;;;;;16.90;10.23;;;;;;;10.18;100.00;99224.50;5074002;28;20032;-68
2020/12/30 10:21:54;;;;;;;14.70;9.50;;;;;;;10.24;100.00;99236.44;5073916;28;20037;-67
2020/12/30 10:24:19;;;;;;;16.10;9.98;;;;;;;10.21;100.00;99232.25;5072916;28;20031;-67
2020/12/30 10:26:45;;;;;;;14.93;9.63;;;;;;;10.31;100.00;99240.16;5074009;28;20032;-67
2020/12/30 10:29:11;;;;;;;13.80;9.88;;;;;;;10.36;100.00;99244.06;5081226;28;20073;-71
2020/12/30 10:31:36;;;;;;;12.82;9.60;;;;;;;10.31;100.00;99230.28;5093871;28;20059;-70
2020/12/30 10:34:02;;;;;;;11.68;9.07;;;;;;;10.36;100.00;99233.34;5093999;28;20043;-71
2020/12/30 10:36:32;;;;;;;10.80;8.85;;;;;;;10.31;100.00;99232.09;5082443;28;20039;-70
2020/12/30 10:39:00;;;;;;;12.40;9.32;;;;;;;10.36;100.00;99241.38;5073057;28;20024;-67
2020/12/30 10:41:26;;;;;;;11.52;8.82;;;;;;;10.25;100.00;99220.19;5072975;28;20060;-67
2020/12/30 10:43:51;;;;;;;11.70;8.02;;;;;;;10.33;100.00;99232.81;5073196;28;20082;-67
2020/12/30 10:46:17;;;;;;;14.02;9.13;;;;;;;10.33;100.00;99232.81;5090410;28;20839;-70
2020/12/30 10:48:44;;;;;;;12.45;9.32;;;;;;;10.17;100.00;99212.13;5092057;28;20397;-70
2020/12/30 10:51:14;;;;;;;10.35;8.30;;;;;;;10.16;100.00;99221.13;5092154;28;20408;-70
2020/12/30 10:53:39;;;;;;;11.18;8.40;;;;;;;10.27;100.00;99230.75;5093486;28;20466;-71
2020/12/30 10:56:06;;;;;;;11.07;8.77;;;;;;;10.19;100.00;99225.38;5079863;28;20090;-70
2020/12/30 10:58:32;;;;;;;10.48;8.10;;;;;;;10.19;100.00;99223.50;5073286;28;20040;-71
2020/12/30 11:00:57;;;;;;;12.13;8.57;;;;;;;10.23;100.00;99234.75;5072123;28;20063;-71
2020/12/30 11:03:23;;;;;;;13.30;8.88;;;;;;;10.16;100.00;99221.13;5073087;28;20021;-71
2020/12/30 11:05:48;;;;;;;12.25;8.75;;;;;;;10.22;100.00;99217.81;5079949;28;20024;-70
2020/12/30 11:08:14;;;;;;;12.20;9.27;;;;;;;10.35;100.00;99233.50;5084697;28;20033;-70
2020/12/30 11:10:40;;;;;;;12.77;8.98;;;;;;;10.36;100.00;99227.97;5081935;28;20136;-70
2020/12/30 11:13:06;;;;;;;12.65;9.45;;;;;;;10.17;100.00;99193.38;5083508;28;20115;-70
2020/12/30 11:15:35;;;;;;;13.00;8.68;;;;;;;10.37;100.00;99229.66;5093150;28;20028;-70
2020/12/30 11:18:00;;;;;;;13.10;8.57;;;;;;;10.28;100.00;99209.16;5093302;28;20390;-71
2020/12/30 11:20:26;;;;;;;13.40;7.78;;;;;;;10.39;100.00;99224.97;5084049;28;20027;-70
2020/12/30 11:22:52;;;;;;;11.90;8.57;;;;;;;10.37;100.00;99228.78;5074029;28;20113;-70
2020/12/30 11:25:17;;;;;;;11.48;8.43;;;;;;;10.37;100.00;99226.97;5077084;28;20028;-71
2020/12/30 11:27:45;;;;;;;12.13;7.90;;;;;;;10.35;100.00;99233.50;5087763;28;20033;-71
2020/12/30 11:30:11;;;;;;;10.25;7.05;;;;;;;10.21;100.00;99213.47;5072877;28;20025;-70